Terminal Aerodrome Forecast
Issued by NWS

Home | Current Version | Previous Version | Text Only | Print | Product List | Glossary On
Versions: 1 2 3 4 5 6 7 8 9 10 11 12 13 14 15 16
000
FTUS43 KGRR 300520
TAFAZO
TAF
KAZO 300520Z 3006/3106 25009KT P6SM SKC
     FM301400 29015G25KT P6SM SKC
     FM310000 26005KT P6SM SKC=

USA.gov is the U.S. government's official web portal to all federal, state and local government web resources and services.